createdAt,value
2023-04-03T00:01:14.624Z,9.06
2023-04-03T00:03:42.685Z,9.04
2023-04-03T00:06:12.136Z,9.04
2023-04-03T00:08:41.194Z,9.01
2023-04-03T00:11:10.432Z,9.00
2023-04-03T00:13:39.070Z,8.99
2023-04-03T00:16:08.051Z,8.98
2023-04-03T00:18:36.617Z,8.97
2023-04-03T00:21:05.099Z,8.98
2023-04-03T00:23:34.807Z,8.97
2023-04-03T00:26:02.544Z,8.99
2023-04-03T00:28:30.108Z,9.00
2023-04-03T00:30:57.860Z,8.99
2023-04-03T00:33:25.508Z,8.95
2023-04-03T00:35:53.364Z,8.94
2023-04-03T00:38:21.329Z,8.94
2023-04-03T00:40:50.639Z,8.91
2023-04-03T00:43:25.193Z,8.87
2023-04-03T00:45:56.448Z,8.85
2023-04-03T00:48:33.775Z,8.84
2023-04-03T00:51:03.341Z,8.82
2023-04-03T00:53:42.635Z,8.83
2023-04-03T00:56:16.045Z,8.84
2023-04-03T00:59:00.698Z,8.82
2023-04-03T01:01:30.703Z,8.82
2023-04-03T01:04:01.138Z,8.79
2023-04-03T01:06:34.839Z,8.75
2023-04-03T01:09:09.677Z,8.76
2023-04-03T01:11:37.153Z,8.75
2023-04-03T01:14:06.885Z,8.75
2023-04-03T01:16:34.447Z,8.73
2023-04-03T01:19:04.158Z,8.69
2023-04-03T01:22:04.579Z,8.64
2023-04-03T01:24:39.524Z,8.64
2023-04-03T01:27:11.352Z,8.62
2023-04-03T01:29:39.525Z,8.56
2023-04-03T01:32:07.144Z,8.55
2023-04-03T01:34:34.693Z,8.54
2023-04-03T01:37:02.559Z,8.51
2023-04-03T01:39:30.258Z,8.51
2023-04-03T01:42:00.114Z,8.51
2023-04-03T01:44:32.036Z,8.52
2023-04-03T01:46:59.545Z,8.55
2023-04-03T01:49:29.316Z,8.53
2023-04-03T01:51:57.434Z,8.50
2023-04-03T01:54:25.043Z,8.49
2023-04-03T01:56:53.084Z,8.47
2023-04-03T01:59:21.830Z,8.45
2023-04-03T02:01:49.364Z,8.46
2023-04-03T02:04:17.041Z,8.45
2023-04-03T02:06:44.627Z,8.44
2023-04-03T02:09:12.174Z,8.42
2023-04-03T02:11:39.760Z,8.45
2023-04-03T02:14:07.749Z,8.45
2023-04-03T02:16:35.362Z,8.45
2023-04-03T02:19:02.955Z,8.45
2023-04-03T02:21:31.621Z,8.43
2023-04-03T02:23:59.206Z,8.43
2023-04-03T02:26:27.531Z,8.44
2023-04-03T02:28:55.100Z,8.46
2023-04-03T02:31:24.933Z,8.45
2023-04-03T02:33:53.114Z,8.47
2023-04-03T02:36:20.932Z,8.48
2023-04-03T02:38:54.568Z,8.50
2023-04-03T02:41:22.483Z,8.51
2023-04-03T02:43:52.140Z,8.46
2023-04-03T02:46:19.680Z,8.44
2023-04-03T02:48:47.279Z,8.44
2023-04-03T02:51:14.990Z,8.43
2023-04-03T02:53:42.531Z,8.44
2023-04-03T02:56:17.960Z,8.43
2023-04-03T02:58:45.922Z,8.42
2023-04-03T03:01:13.567Z,8.38
2023-04-03T03:03:41.866Z,8.36
2023-04-03T03:06:14.396Z,8.36
2023-04-03T03:08:42.643Z,8.36
2023-04-03T03:11:10.911Z,8.35
2023-04-03T03:13:39.048Z,8.36
2023-04-03T03:16:07.080Z,8.34
2023-04-03T03:18:35.232Z,8.32
2023-04-03T03:21:05.097Z,8.30
2023-04-03T03:23:34.090Z,8.29
2023-04-03T03:26:08.517Z,8.32
2023-04-03T03:28:38.281Z,8.29
2023-04-03T03:31:08.407Z,8.30
2023-04-03T03:33:38.393Z,8.29
2023-04-03T03:36:06.445Z,8.32
2023-04-03T03:38:34.094Z,8.31
2023-04-03T03:41:02.944Z,8.32
2023-04-03T03:43:32.434Z,8.33
2023-04-03T03:45:59.949Z,8.34
2023-04-03T03:48:28.656Z,8.32
2023-04-03T03:50:57.208Z,8.31
2023-04-03T03:53:29.065Z,8.33
2023-04-03T03:56:01.022Z,8.32
2023-04-03T03:58:30.970Z,8.32
2023-04-03T04:01:03.048Z,8.30
2023-04-03T04:03:31.344Z,8.33
2023-04-03T04:05:59.330Z,8.35
2023-04-03T04:08:27.059Z,8.34
2023-04-03T04:10:54.620Z,8.36
2023-04-03T04:13:22.200Z,8.38
2023-04-03T04:15:50.486Z,8.41
2023-04-03T04:18:18.916Z,8.42
2023-04-03T04:20:48.761Z,8.38
2023-04-03T04:23:19.774Z,8.40
2023-04-03T04:25:49.855Z,8.39
2023-04-03T04:28:18.613Z,8.38
2023-04-03T04:30:48.096Z,8.38
2023-04-03T04:33:17.435Z,8.38
2023-04-03T04:35:49.420Z,8.36
2023-04-03T04:38:19.126Z,8.37
2023-04-03T04:40:48.383Z,8.36
2023-04-03T04:43:16.947Z,8.36
2023-04-03T04:45:46.521Z,8.36
2023-04-03T04:48:14.233Z,8.36
2023-04-03T04:50:41.745Z,8.31
2023-04-03T04:53:09.522Z,8.27
2023-04-03T04:55:37.247Z,8.26
2023-04-03T04:58:05.204Z,8.26
2023-04-03T05:00:32.812Z,8.28
2023-04-03T05:03:00.809Z,8.27
2023-04-03T05:05:28.931Z,8.29
2023-04-03T05:07:56.650Z,8.28
2023-04-03T05:10:24.735Z,8.27
2023-04-03T05:12:52.239Z,8.23
2023-04-03T05:15:20.886Z,8.20
2023-04-03T05:17:49.045Z,8.21
2023-04-03T05:20:16.995Z,8.12
2023-04-03T05:22:46.633Z,8.09
2023-04-03T05:25:14.572Z,8.09
2023-04-03T05:27:45.168Z,8.12
2023-04-03T05:30:14.082Z,8.15
2023-04-03T05:32:43.341Z,8.16
2023-04-03T05:35:17.192Z,8.15
2023-04-03T05:37:46.984Z,8.15
2023-04-03T05:40:18.517Z,8.12
2023-04-03T05:42:48.198Z,8.17
2023-04-03T05:45:17.422Z,8.17
2023-04-03T05:47:45.671Z,8.20
2023-04-03T05:50:13.321Z,8.19
2023-04-03T05:52:45.506Z,8.16
2023-04-03T05:55:14.035Z,8.09
2023-04-03T05:57:41.662Z,8.08
2023-04-03T06:00:15.324Z,8.14
2023-04-03T06:02:44.925Z,8.18
2023-04-03T06:05:18.933Z,8.17
2023-04-03T06:07:47.496Z,8.18
2023-04-03T06:10:15.823Z,8.19
2023-04-03T06:12:43.547Z,8.20
2023-04-03T06:15:11.237Z,8.20
2023-04-03T06:17:39.029Z,8.24
2023-04-03T06:20:07.427Z,8.24
2023-04-03T06:22:36.306Z,8.27
2023-04-03T06:25:04.511Z,8.26
2023-04-03T06:27:32.028Z,8.27
2023-04-03T06:29:59.574Z,8.30
2023-04-03T06:32:27.382Z,8.24
2023-04-03T06:34:54.940Z,8.24
2023-04-03T06:37:23.937Z,8.27
2023-04-03T06:39:51.468Z,8.24
2023-04-03T06:42:19.082Z,8.19
2023-04-03T06:44:54.351Z,8.18
2023-04-03T06:47:21.874Z,8.14
2023-04-03T06:49:49.585Z,8.18
2023-04-03T06:52:17.316Z,8.22
2023-04-03T06:54:44.971Z,8.27
2023-04-03T06:57:12.480Z,8.27
2023-04-03T06:59:41.069Z,8.26
2023-04-03T07:02:13.462Z,8.33
2023-04-03T07:04:41.971Z,8.43
2023-04-03T07:07:09.580Z,8.50
2023-04-03T07:09:37.078Z,8.57
2023-04-03T07:12:04.685Z,8.63
2023-04-03T07:14:32.163Z,8.71
2023-04-03T07:16:59.616Z,8.74
2023-04-03T07:19:28.890Z,8.83
2023-04-03T07:21:56.576Z,8.91
2023-04-03T07:24:24.419Z,8.98
2023-04-03T07:26:53.717Z,9.01
2023-04-03T07:29:22.402Z,9.05
2023-04-03T07:31:50.298Z,9.10
2023-04-03T07:34:17.869Z,9.09
2023-04-03T07:36:45.425Z,9.13
2023-04-03T07:39:13.312Z,9.14
2023-04-03T07:41:40.955Z,9.14
2023-04-03T07:44:10.688Z,9.09
2023-04-03T07:46:39.256Z,9.09
2023-04-03T07:49:06.798Z,9.11
2023-04-03T07:51:34.394Z,9.12
2023-04-03T07:54:01.984Z,9.13
2023-04-03T07:56:29.870Z,9.15
2023-04-03T07:58:57.371Z,9.16
2023-04-03T08:01:24.916Z,9.06
2023-04-03T08:03:52.542Z,9.02
2023-04-03T08:06:29.408Z,8.98
2023-04-03T08:09:00.857Z,8.90
2023-04-03T08:11:28.455Z,8.87
2023-04-03T08:13:57.032Z,8.97
2023-04-03T08:16:28.780Z,9.09
2023-04-03T08:18:56.941Z,9.01
2023-04-03T08:21:24.462Z,8.94
2023-04-03T08:23:52.097Z,8.95
2023-04-03T08:26:22.539Z,8.98
2023-04-03T08:28:50.497Z,9.03
2023-04-03T08:31:20.826Z,9.10
2023-04-03T08:33:48.740Z,9.11
2023-04-03T08:36:27.554Z,9.19
2023-04-03T08:38:56.586Z,9.22
2023-04-03T08:41:35.996Z,9.27
2023-04-03T08:44:46.859Z,9.26
2023-04-03T08:48:06.637Z,9.27
2023-04-03T08:51:07.612Z,9.38
2023-04-03T08:53:45.540Z,9.55
2023-04-03T08:56:16.387Z,9.67
2023-04-03T08:59:08.102Z,9.77
2023-04-03T09:01:39.508Z,9.87
2023-04-03T09:04:15.028Z,9.90
2023-04-03T09:06:52.751Z,10.00
2023-04-03T09:09:42.738Z,10.04
2023-04-03T09:12:30.895Z,9.98
2023-04-03T09:15:31.198Z,9.97
2023-04-03T09:18:12.601Z,9.96
2023-04-03T09:21:25.925Z,9.91
2023-04-03T09:23:58.862Z,10.10
2023-04-03T09:26:37.606Z,10.22
2023-04-03T09:29:08.654Z,10.23
2023-04-03T09:31:43.474Z,10.23
2023-04-03T09:34:42.852Z,10.31
2023-04-03T09:37:10.360Z,10.27
2023-04-03T09:39:57.184Z,10.25
2023-04-03T09:42:26.422Z,10.23
2023-04-03T09:45:04.128Z,10.19
2023-04-03T09:47:34.835Z,10.14
2023-04-03T09:50:14.762Z,10.15
2023-04-03T09:52:44.838Z,10.13
2023-04-03T09:55:28.309Z,10.23
2023-04-03T09:58:05.352Z,10.28
2023-04-03T10:00:40.582Z,10.35
2023-04-03T10:03:36.700Z,10.37
2023-04-03T10:06:08.391Z,10.52
2023-04-03T10:08:36.376Z,10.63
2023-04-03T10:11:17.720Z,10.74
2023-04-03T10:13:57.544Z,10.79
2023-04-03T10:16:38.281Z,10.79
2023-04-03T10:19:24.928Z,10.75
2023-04-03T10:22:15.374Z,10.74
2023-04-03T10:24:54.850Z,10.75
2023-04-03T10:28:00.753Z,10.74
2023-04-03T10:30:53.721Z,10.71
2023-04-03T10:33:35.697Z,10.64
2023-04-03T10:36:50.151Z,10.52
2023-04-03T10:40:02.229Z,10.40
2023-04-03T10:42:55.093Z,10.32
2023-04-03T10:45:32.422Z,10.30
2023-04-03T10:48:06.781Z,10.28
2023-04-03T10:51:12.939Z,10.25
2023-04-03T10:54:07.302Z,10.35
2023-04-03T10:56:55.315Z,10.44
2023-04-03T10:59:37.641Z,10.56
2023-04-03T11:02:28.590Z,10.55
2023-04-03T11:05:16.442Z,10.55
2023-04-03T11:07:50.561Z,10.61
2023-04-03T11:10:45.907Z,10.64
2023-04-03T11:13:24.034Z,10.51
2023-04-03T11:15:54.109Z,10.53
2023-04-03T11:18:46.072Z,10.56
2023-04-03T11:21:35.619Z,10.62
2023-04-03T11:24:14.835Z,10.53
2023-04-03T11:26:43.956Z,10.50
2023-04-03T11:29:34.226Z,10.49
2023-04-03T11:32:36.710Z,10.52
2023-04-03T11:35:08.213Z,10.69
2023-04-03T11:37:40.903Z,10.70
2023-04-03T11:40:18.826Z,10.78
2023-04-03T11:42:54.038Z,10.94
2023-04-03T11:45:25.529Z,10.89
2023-04-03T11:48:10.184Z,10.84
2023-04-03T11:50:47.115Z,10.72
2023-04-03T11:53:14.453Z,10.75
2023-04-03T11:55:46.384Z,10.73
2023-04-03T11:58:34.098Z,10.70
2023-04-03T12:01:04.969Z,10.70
2023-04-03T12:04:05.761Z,10.70
2023-04-03T12:07:01.407Z,10.80
2023-04-03T12:09:56.393Z,10.84
2023-04-03T12:12:39.891Z,10.91
2023-04-03T12:15:22.335Z,11.00
2023-04-03T12:17:50.445Z,11.04
2023-04-03T12:20:53.753Z,10.93
2023-04-03T12:23:34.273Z,10.89
2023-04-03T12:26:20.343Z,10.93
2023-04-03T12:28:49.495Z,11.02
2023-04-03T12:31:18.062Z,11.03
2023-04-03T12:34:16.155Z,11.11
2023-04-03T12:37:29.265Z,11.29
2023-04-03T12:40:21.920Z,11.45
2023-04-03T12:43:45.635Z,11.50
2023-04-03T12:46:21.904Z,11.61
2023-04-03T12:48:52.829Z,11.62
2023-04-03T12:51:40.857Z,11.47
2023-04-03T12:54:17.364Z,11.43
2023-04-03T12:56:45.036Z,11.48
2023-04-03T12:59:27.679Z,11.55
2023-04-03T13:02:02.762Z,11.57
2023-04-03T13:04:32.961Z,11.55
2023-04-03T13:07:00.823Z,11.60
2023-04-03T13:09:32.066Z,11.52
2023-04-03T13:12:13.455Z,11.54
2023-04-03T13:14:41.930Z,11.55
2023-04-03T13:17:17.151Z,11.53
2023-04-03T13:19:49.372Z,11.48
2023-04-03T13:22:33.802Z,11.46
2023-04-03T13:25:07.194Z,11.38
2023-04-03T13:27:35.267Z,11.40
2023-04-03T13:30:05.172Z,11.53
2023-04-03T13:32:33.677Z,11.65
2023-04-03T13:35:15.601Z,11.62
2023-04-03T13:37:57.850Z,11.60
2023-04-03T13:40:28.087Z,11.64
2023-04-03T13:43:24.632Z,11.56
2023-04-03T13:46:13.218Z,11.49
2023-04-03T13:48:47.828Z,11.40
2023-04-03T13:51:15.932Z,11.42
2023-04-03T13:54:00.547Z,11.43
2023-04-03T13:56:33.858Z,11.49
2023-04-03T13:59:12.203Z,11.53
2023-04-03T14:01:47.208Z,11.55
2023-04-03T14:04:17.949Z,11.52
2023-04-03T14:06:46.835Z,11.57
2023-04-03T14:09:15.864Z,11.60
2023-04-03T14:11:43.963Z,11.62
2023-04-03T14:14:31.706Z,11.70
2023-04-03T14:17:03.784Z,11.69
2023-04-03T14:19:36.659Z,11.60
2023-04-03T14:22:25.888Z,11.49
2023-04-03T14:24:54.166Z,11.30
2023-04-03T14:27:28.131Z,11.21
2023-04-03T14:29:58.178Z,11.20
2023-04-03T14:32:28.229Z,11.15
2023-04-03T14:34:56.247Z,11.13
2023-04-03T14:37:28.753Z,11.22
2023-04-03T14:39:59.120Z,11.31
2023-04-03T14:42:34.347Z,11.45
2023-04-03T14:45:07.003Z,11.58
2023-04-03T14:47:46.376Z,11.67
2023-04-03T14:50:21.980Z,11.70
2023-04-03T14:52:54.533Z,11.67
2023-04-03T14:55:25.791Z,11.57
2023-04-03T14:57:54.437Z,11.47
2023-04-03T15:00:23.358Z,11.43
2023-04-03T15:02:51.181Z,11.37
2023-04-03T15:05:20.404Z,11.30
2023-04-03T15:07:59.025Z,11.28
2023-04-03T15:10:30.227Z,11.22
2023-04-03T15:12:58.310Z,11.19
2023-04-03T15:15:30.355Z,11.25
2023-04-03T15:17:58.905Z,11.20
2023-04-03T15:20:31.292Z,11.26
2023-04-03T15:23:01.605Z,11.31
2023-04-03T15:25:29.861Z,11.36
2023-04-03T15:27:58.283Z,11.29
2023-04-03T15:30:26.056Z,11.26
2023-04-03T15:32:54.145Z,11.37
2023-04-03T15:35:22.001Z,11.42
2023-04-03T15:37:49.739Z,11.46
2023-04-03T15:40:17.515Z,11.51
2023-04-03T15:42:45.046Z,11.49
2023-04-03T15:45:12.596Z,11.54
2023-04-03T15:47:40.287Z,11.55
2023-04-03T15:50:08.913Z,11.52
2023-04-03T15:52:36.895Z,11.56
2023-04-03T15:55:05.460Z,11.58
2023-04-03T16:00:08.874Z,11.57
2023-04-03T16:02:36.582Z,11.57
2023-04-03T16:05:04.487Z,11.55
2023-04-03T16:07:32.052Z,11.52
2023-04-03T16:09:59.585Z,11.49
2023-04-03T16:12:27.121Z,11.52
2023-04-03T16:14:54.680Z,11.56
2023-04-03T16:17:22.371Z,11.58
2023-04-03T16:19:50.176Z,11.64
2023-04-03T16:22:17.723Z,11.75
2023-04-03T16:24:45.257Z,11.74
2023-04-03T16:27:12.756Z,11.79
2023-04-03T16:29:40.407Z,11.77
2023-04-03T16:32:08.054Z,11.72
2023-04-03T16:34:36.009Z,11.67
2023-04-03T16:37:03.714Z,11.61
2023-04-03T16:39:31.269Z,11.57
2023-04-03T16:41:58.743Z,11.53
2023-04-03T16:44:27.071Z,11.51
2023-04-03T16:46:54.908Z,11.52
2023-04-03T16:49:22.470Z,11.53
2023-04-03T16:51:50.429Z,11.53
2023-04-03T16:54:17.951Z,11.53
2023-04-03T16:56:45.534Z,11.48
2023-04-03T16:59:13.162Z,11.45
2023-04-03T17:01:40.835Z,11.41
2023-04-03T17:04:08.397Z,11.31
2023-04-03T17:06:36.479Z,11.18
2023-04-03T17:09:03.990Z,11.10
2023-04-03T17:11:32.713Z,11.03
2023-04-03T17:14:00.540Z,10.96
2023-04-03T17:16:28.874Z,10.91
2023-04-03T17:18:57.180Z,10.82
2023-04-03T17:21:24.924Z,10.78
2023-04-03T17:23:58.646Z,10.73
2023-04-03T17:26:27.135Z,10.69
2023-04-03T17:28:54.623Z,10.66
2023-04-03T17:31:22.142Z,10.60
2023-04-03T17:33:49.810Z,10.51
2023-04-03T17:36:17.281Z,10.44
2023-04-03T17:38:44.865Z,10.32
2023-04-03T17:41:12.431Z,10.25
2023-04-03T17:43:40.015Z,10.21
2023-04-03T17:46:10.413Z,10.15
2023-04-03T17:48:40.852Z,10.15
2023-04-03T17:51:14.323Z,10.14
2023-04-03T17:53:42.552Z,10.07
2023-04-03T17:56:17.422Z,10.03
2023-04-03T17:58:45.616Z,9.96
2023-04-03T18:01:17.319Z,9.91
2023-04-03T18:03:45.928Z,9.86
2023-04-03T18:06:17.730Z,9.81
2023-04-03T18:09:01.301Z,9.79
2023-04-03T18:11:30.108Z,9.78
2023-04-03T18:14:02.404Z,9.72
2023-04-03T18:16:30.982Z,9.65
2023-04-03T18:19:17.638Z,9.59
2023-04-03T18:21:47.683Z,9.56
2023-04-03T18:24:18.910Z,9.59
2023-04-03T18:26:55.757Z,9.57
2023-04-03T18:29:23.643Z,9.50
2023-04-03T18:31:55.692Z,9.44
2023-04-03T18:34:23.427Z,9.38
2023-04-03T18:36:52.243Z,9.30
2023-04-03T18:39:19.807Z,9.26
2023-04-03T18:41:47.868Z,9.22
2023-04-03T18:44:20.961Z,9.15
2023-04-03T18:46:48.561Z,9.11
2023-04-03T18:49:18.014Z,9.03
2023-04-03T18:51:46.376Z,8.98
2023-04-03T18:54:13.892Z,9.00
2023-04-03T18:56:41.508Z,9.02
2023-04-03T18:59:09.051Z,9.00
2023-04-03T19:01:37.340Z,8.95
2023-04-03T19:04:05.093Z,8.89
2023-04-03T19:06:37.082Z,8.86
2023-04-03T19:09:06.701Z,8.83
2023-04-03T19:11:35.379Z,8.81
2023-04-03T19:14:15.197Z,8.80
2023-04-03T19:16:44.646Z,8.78
2023-04-03T19:19:12.623Z,8.73
2023-04-03T19:21:41.501Z,8.65
2023-04-03T19:24:11.757Z,8.60
2023-04-03T19:26:41.540Z,8.55
2023-04-03T19:29:10.242Z,8.52
2023-04-03T19:31:38.777Z,8.44
2023-04-03T19:34:07.550Z,8.35
2023-04-03T19:36:36.145Z,8.27
2023-04-03T19:39:05.405Z,8.27
2023-04-03T19:41:36.520Z,8.26
2023-04-03T19:44:07.061Z,8.25
2023-04-03T19:46:36.193Z,8.20
2023-04-03T19:49:04.579Z,8.17
2023-04-03T19:51:32.065Z,8.16
2023-04-03T19:53:59.626Z,8.16
2023-04-03T19:56:27.359Z,8.13
2023-04-03T19:58:54.984Z,8.03
2023-04-03T20:01:27.669Z,7.95
2023-04-03T20:03:55.336Z,7.92
2023-04-03T20:06:23.554Z,7.91
2023-04-03T20:08:51.169Z,7.91
2023-04-03T20:11:18.760Z,7.90
2023-04-03T20:13:50.331Z,7.93
2023-04-03T20:16:19.281Z,7.94
2023-04-03T20:18:47.583Z,7.94
2023-04-03T20:21:15.443Z,7.91
2023-04-03T20:23:42.930Z,7.85
2023-04-03T20:26:18.768Z,7.81
2023-04-03T20:28:46.291Z,7.78
2023-04-03T20:31:14.087Z,7.76
2023-04-03T20:33:41.873Z,7.75
2023-04-03T20:36:09.599Z,7.75
2023-04-03T20:38:37.082Z,7.70
2023-04-03T20:41:04.859Z,7.68
2023-04-03T20:43:32.428Z,7.66
2023-04-03T20:46:03.178Z,7.64
2023-04-03T20:48:32.239Z,7.59
2023-04-03T20:51:12.457Z,7.53
2023-04-03T20:53:41.113Z,7.49
2023-04-03T20:56:09.003Z,7.46
2023-04-03T20:58:39.118Z,7.44
2023-04-03T21:01:22.790Z,7.41
2023-04-03T21:03:54.911Z,7.41
2023-04-03T21:07:18.911Z,7.33
2023-04-03T21:10:42.946Z,7.32
2023-04-03T21:14:07.443Z,7.31
2023-04-03T21:16:37.249Z,7.32
2023-04-03T21:19:15.648Z,7.28
2023-04-03T21:21:46.027Z,7.26
2023-04-03T21:24:17.048Z,7.22
2023-04-03T21:26:45.266Z,7.17
2023-04-03T21:29:13.759Z,7.16
2023-04-03T21:31:52.084Z,7.14
2023-04-03T21:34:21.748Z,7.07
2023-04-03T21:36:49.942Z,7.01
2023-04-03T21:39:17.542Z,6.94
2023-04-03T21:41:45.433Z,6.89
2023-04-03T21:44:13.018Z,6.81
2023-04-03T21:46:40.551Z,6.78
2023-04-03T21:49:08.034Z,6.75
2023-04-03T21:51:36.750Z,6.67
2023-04-03T21:54:04.373Z,6.63
2023-04-03T21:56:31.964Z,6.62
2023-04-03T21:59:02.492Z,6.62
2023-04-03T22:01:30.275Z,6.62
2023-04-03T22:03:59.044Z,6.64
2023-04-03T22:06:26.589Z,6.59
2023-04-03T22:08:54.232Z,6.54
2023-04-03T22:11:24.524Z,6.52
2023-04-03T22:13:54.507Z,6.45
2023-04-03T22:16:23.281Z,6.43
2023-04-03T22:18:56.080Z,6.44
2023-04-03T22:21:23.558Z,6.44
2023-04-03T22:23:52.495Z,6.43
2023-04-03T22:26:21.450Z,6.43
2023-04-03T22:28:49.059Z,6.38
2023-04-03T22:31:17.060Z,6.37
2023-04-03T22:33:46.106Z,6.34
2023-04-03T22:36:14.344Z,6.34
2023-04-03T22:38:46.692Z,6.33
2023-04-03T22:41:14.213Z,6.30
2023-04-03T22:43:42.458Z,6.29
2023-04-03T22:46:10.140Z,6.28
2023-04-03T22:48:40.872Z,6.26
2023-04-03T22:51:08.513Z,6.26
2023-04-03T22:53:36.986Z,6.26
2023-04-03T22:56:10.885Z,6.22
2023-04-03T22:58:38.859Z,6.20
2023-04-03T23:01:07.789Z,6.18
2023-04-03T23:03:37.227Z,6.19
2023-04-03T23:06:06.151Z,6.18
2023-04-03T23:08:34.970Z,6.17
2023-04-03T23:11:02.746Z,6.15
2023-04-03T23:13:30.400Z,6.13
2023-04-03T23:16:01.422Z,6.10
2023-04-03T23:18:31.219Z,6.10
2023-04-03T23:21:03.511Z,6.08
2023-04-03T23:23:31.964Z,6.08
2023-04-03T23:26:01.558Z,6.07
2023-04-03T23:28:29.810Z,6.05
2023-04-03T23:31:02.645Z,6.00
2023-04-03T23:33:31.765Z,5.95
2023-04-03T23:36:01.119Z,5.91
2023-04-03T23:38:29.473Z,5.85
2023-04-03T23:40:57.049Z,5.81
2023-04-03T23:43:24.629Z,5.78
2023-04-03T23:45:52.482Z,5.73
2023-04-03T23:48:20.096Z,5.68
2023-04-03T23:50:47.588Z,5.64
2023-04-03T23:53:15.068Z,5.62
2023-04-03T23:55:42.759Z,5.58
2023-04-03T23:58:13.176Z,5.53
